createdAt,value
2019-02-10T00:00:38.687Z,3.60
2019-02-10T00:03:05.391Z,3.70
2019-02-10T00:05:31.959Z,3.60
2019-02-10T00:07:58.291Z,3.60
2019-02-10T00:10:24.796Z,3.60
2019-02-10T00:13:27.037Z,3.60
2019-02-10T00:15:54.488Z,3.60
2019-02-10T00:18:20.967Z,3.50
2019-02-10T00:20:47.387Z,3.50
2019-02-10T00:23:13.875Z,3.50
2019-02-10T00:25:40.248Z,3.50
2019-02-10T00:28:06.594Z,3.50
2019-02-10T00:30:32.980Z,3.40
2019-02-10T00:33:00.776Z,3.40
2019-02-10T00:35:27.033Z,3.40
2019-02-10T00:37:53.395Z,3.40
2019-02-10T00:40:19.734Z,3.40
2019-02-10T00:42:46.203Z,3.40
2019-02-10T00:45:12.593Z,3.30
2019-02-10T00:47:38.958Z,3.30
2019-02-10T00:50:05.482Z,3.30
2019-02-10T00:52:31.830Z,3.20
2019-02-10T00:54:58.179Z,3.20
2019-02-10T00:57:24.429Z,3.20
2019-02-10T00:59:50.773Z,3.20
2019-02-10T01:02:17.068Z,3.20
2019-02-10T01:04:43.354Z,3.10
2019-02-10T01:07:09.618Z,3.00
2019-02-10T01:09:36.000Z,3.00
2019-02-10T01:12:04.481Z,3.00
2019-02-10T01:14:30.929Z,3.00
2019-02-10T01:16:57.305Z,2.90
2019-02-10T01:19:23.557Z,2.90
2019-02-10T01:21:49.840Z,2.80
2019-02-10T01:24:16.314Z,2.90
2019-02-10T01:26:42.921Z,2.90
2019-02-10T01:29:09.401Z,2.90
2019-02-10T01:31:35.690Z,2.90
2019-02-10T01:34:02.103Z,2.90
2019-02-10T01:36:28.737Z,2.80
2019-02-10T01:38:55.158Z,2.80
2019-02-10T01:41:21.395Z,2.80
2019-02-10T01:43:47.714Z,2.90
2019-02-10T01:46:14.002Z,2.80
2019-02-10T01:48:40.464Z,2.80
2019-02-10T01:51:06.971Z,2.90
2019-02-10T01:53:33.220Z,2.80
2019-02-10T01:55:59.700Z,2.80
2019-02-10T01:58:26.077Z,2.80
2019-02-10T02:00:52.561Z,2.80
2019-02-10T02:03:18.989Z,2.70
2019-02-10T02:05:45.338Z,2.70
2019-02-10T02:08:11.747Z,2.70
2019-02-10T02:10:38.045Z,2.70
2019-02-10T02:13:04.416Z,2.70
2019-02-10T02:15:30.806Z,2.70
2019-02-10T02:17:57.086Z,2.70
2019-02-10T02:20:23.431Z,2.70
2019-02-10T02:22:49.783Z,2.80
2019-02-10T02:25:16.286Z,2.80
2019-02-10T02:27:42.770Z,2.80
2019-02-10T02:30:11.542Z,2.80
2019-02-10T02:32:37.981Z,2.80
2019-02-10T02:35:04.849Z,2.80
2019-02-10T02:37:31.307Z,2.70
2019-02-10T02:39:57.548Z,2.70
2019-02-10T02:42:23.917Z,2.70
2019-02-10T02:44:50.172Z,2.70
2019-02-10T02:47:16.471Z,2.70
2019-02-10T02:49:42.805Z,2.60
2019-02-10T02:52:09.420Z,2.60
2019-02-10T02:54:35.813Z,2.60
2019-02-10T02:57:02.128Z,2.60
2019-02-10T02:59:28.374Z,2.60
2019-02-10T03:01:54.654Z,2.60
2019-02-10T03:04:20.996Z,2.60
2019-02-10T03:06:47.503Z,2.60
2019-02-10T03:09:13.968Z,2.50
2019-02-10T03:11:40.457Z,2.50
2019-02-10T03:14:08.800Z,2.50
2019-02-10T03:16:35.141Z,2.50
2019-02-10T03:19:01.436Z,2.60
2019-02-10T03:21:27.727Z,2.60
2019-02-10T03:23:54.085Z,2.60
2019-02-10T03:26:20.529Z,2.60
2019-02-10T03:28:46.885Z,2.60
2019-02-10T03:31:13.192Z,2.60
2019-02-10T03:33:39.584Z,2.60
2019-02-10T03:36:05.839Z,2.60
2019-02-10T03:38:32.119Z,2.60
2019-02-10T03:40:58.555Z,2.60
2019-02-10T03:43:24.873Z,2.60
2019-02-10T03:45:51.221Z,2.60
2019-02-10T03:48:18.638Z,2.60
2019-02-10T03:50:45.027Z,2.70
2019-02-10T03:53:11.436Z,2.70
2019-02-10T03:55:37.990Z,2.70
2019-02-10T03:58:04.474Z,2.80
2019-02-10T04:00:30.962Z,3.00
2019-02-10T04:02:57.582Z,3.00
2019-02-10T04:05:23.809Z,3.10
2019-02-10T04:07:50.203Z,3.20
2019-02-10T04:10:16.722Z,3.30
2019-02-10T04:12:43.105Z,3.30
2019-02-10T04:15:09.703Z,3.40
2019-02-10T04:17:38.279Z,3.40
2019-02-10T04:20:06.554Z,3.30
2019-02-10T04:22:32.936Z,3.00
2019-02-10T04:24:59.586Z,2.90
2019-02-10T04:27:32.396Z,2.90
2019-02-10T04:29:59.042Z,2.90
2019-02-10T04:32:27.328Z,2.90
2019-02-10T04:34:53.563Z,2.80
2019-02-10T04:37:20.074Z,2.90
2019-02-10T04:39:46.340Z,2.90
2019-02-10T04:42:12.633Z,3.10
2019-02-10T04:44:38.940Z,2.90
2019-02-10T04:47:05.443Z,2.90
2019-02-10T04:49:31.803Z,2.80
2019-02-10T04:51:58.235Z,2.80
2019-02-10T04:54:24.600Z,2.80
2019-02-10T04:56:51.190Z,2.90
2019-02-10T04:59:17.552Z,3.00
2019-02-10T05:01:44.021Z,3.10
2019-02-10T05:04:19.103Z,3.10
2019-02-10T05:06:45.622Z,3.20
2019-02-10T05:09:12.103Z,3.30
2019-02-10T05:11:38.473Z,3.40
2019-02-10T05:14:04.749Z,3.40
2019-02-10T05:16:31.436Z,3.50
2019-02-10T05:18:57.909Z,3.50
2019-02-10T05:21:24.510Z,3.50
2019-02-10T05:23:50.920Z,3.50
2019-02-10T05:26:17.300Z,3.40
2019-02-10T05:28:43.666Z,3.40
2019-02-10T05:31:09.969Z,3.40
2019-02-10T05:33:36.266Z,3.30
2019-02-10T05:36:02.753Z,3.10
2019-02-10T05:38:29.034Z,3.00
2019-02-10T05:40:55.337Z,3.00
2019-02-10T05:43:21.606Z,3.00
2019-02-10T05:45:47.894Z,3.00
2019-02-10T05:48:14.131Z,3.00
2019-02-10T05:50:40.502Z,3.00
2019-02-10T05:53:06.908Z,2.90
2019-02-10T05:55:33.266Z,3.00
2019-02-10T05:57:59.711Z,3.00
2019-02-10T06:00:27.095Z,3.00
2019-02-10T06:02:53.401Z,3.00
2019-02-10T06:05:21.159Z,2.90
2019-02-10T06:07:47.419Z,3.00
2019-02-10T06:10:13.790Z,2.90
2019-02-10T06:12:40.164Z,2.90
2019-02-10T06:15:07.897Z,2.90
2019-02-10T06:17:34.265Z,2.80
2019-02-10T06:20:00.558Z,2.80
2019-02-10T06:22:27.682Z,2.90
2019-02-10T06:24:53.977Z,2.90
2019-02-10T06:27:20.225Z,2.90
2019-02-10T06:29:47.385Z,2.90
2019-02-10T06:32:13.795Z,2.90
2019-02-10T06:34:40.032Z,2.90
2019-02-10T06:37:06.575Z,2.90
2019-02-10T06:39:33.038Z,2.90
2019-02-10T06:41:59.573Z,2.90
2019-02-10T06:44:25.875Z,2.80
2019-02-10T06:46:52.150Z,2.80
2019-02-10T06:49:18.512Z,2.80
2019-02-10T06:51:44.889Z,2.80
2019-02-10T06:54:11.271Z,2.80
2019-02-10T06:56:38.067Z,2.90
2019-02-10T06:59:06.306Z,2.90
2019-02-10T07:01:37.026Z,2.90
2019-02-10T07:04:07.023Z,3.00
2019-02-10T07:06:33.708Z,3.20
2019-02-10T07:09:00.196Z,3.30
2019-02-10T07:11:26.549Z,3.50
2019-02-10T07:13:55.131Z,3.70
2019-02-10T07:16:46.008Z,3.70
2019-02-10T07:19:48.322Z,3.80
2019-02-10T07:22:33.680Z,3.90
2019-02-10T07:25:16.034Z,3.90
2019-02-10T07:27:44.913Z,4.00
2019-02-10T07:30:14.986Z,4.00
2019-02-10T07:32:53.530Z,3.90
2019-02-10T07:35:29.631Z,3.80
2019-02-10T07:37:59.745Z,3.80
2019-02-10T07:40:29.797Z,3.80
2019-02-10T07:43:12.097Z,4.00
2019-02-10T07:45:46.106Z,4.20
2019-02-10T07:48:22.183Z,4.30
2019-02-10T07:50:58.246Z,4.30
2019-02-10T07:53:34.330Z,4.40
2019-02-10T07:56:07.297Z,4.40
2019-02-10T07:59:06.678Z,4.50
2019-02-10T08:01:42.937Z,4.50
2019-02-10T08:04:39.290Z,4.70
2019-02-10T08:07:26.118Z,4.60
2019-02-10T08:09:59.590Z,4.70
2019-02-10T08:12:30.443Z,4.70
2019-02-10T08:15:00.551Z,4.60
2019-02-10T08:17:36.650Z,4.50
2019-02-10T08:20:22.227Z,4.40
2019-02-10T08:23:07.770Z,4.40
2019-02-10T08:26:06.861Z,4.40
2019-02-10T08:28:37.143Z,4.40
2019-02-10T08:31:43.368Z,4.40
2019-02-10T08:34:32.329Z,4.50
2019-02-10T08:37:17.020Z,4.60
2019-02-10T08:40:00.246Z,4.70
2019-02-10T08:42:33.800Z,4.80
2019-02-10T08:45:12.990Z,5.00
2019-02-10T08:47:57.936Z,5.10
2019-02-10T08:50:37.796Z,5.30
2019-02-10T08:53:14.064Z,5.40
2019-02-10T08:55:40.593Z,5.40
2019-02-10T08:58:07.152Z,5.40
2019-02-10T09:00:33.617Z,5.50
2019-02-10T09:02:59.947Z,5.40
2019-02-10T09:05:26.479Z,5.50
2019-02-10T09:07:53.055Z,5.50
2019-02-10T09:10:19.575Z,5.60
2019-02-10T09:12:46.075Z,5.60
2019-02-10T09:15:14.286Z,5.60
2019-02-10T09:17:40.558Z,5.70
2019-02-10T09:20:09.605Z,5.90
2019-02-10T09:22:36.141Z,6.30
2019-02-10T09:25:04.796Z,6.80
2019-02-10T09:27:31.049Z,7.10
2019-02-10T09:30:01.563Z,7.30
2019-02-10T09:32:27.888Z,7.50
2019-02-10T09:34:54.243Z,7.60
2019-02-10T09:37:21.544Z,7.80
2019-02-10T09:39:48.032Z,7.90
2019-02-10T09:42:14.361Z,8.00
2019-02-10T09:44:40.854Z,8.20
2019-02-10T09:47:07.354Z,8.40
2019-02-10T09:49:33.795Z,8.70
2019-02-10T09:52:00.260Z,9.00
2019-02-10T09:54:26.726Z,9.10
2019-02-10T09:56:53.068Z,9.20
2019-02-10T09:59:19.418Z,9.20
2019-02-10T10:01:45.735Z,9.40
2019-02-10T10:04:12.093Z,9.70
2019-02-10T10:06:38.703Z,9.90
2019-02-10T10:09:05.563Z,10.00
2019-02-10T10:11:31.942Z,10.20
2019-02-10T10:13:58.432Z,10.40
2019-02-10T10:16:24.811Z,10.60
2019-02-10T10:18:51.224Z,10.90
2019-02-10T10:21:17.616Z,11.10
2019-02-10T10:23:44.066Z,11.40
2019-02-10T10:26:10.444Z,11.70
2019-02-10T10:28:36.709Z,11.90
2019-02-10T10:31:03.142Z,12.10
2019-02-10T10:33:29.675Z,12.40
2019-02-10T10:35:58.174Z,12.70
2019-02-10T10:38:24.453Z,12.70
2019-02-10T10:40:50.949Z,12.50
2019-02-10T10:43:17.209Z,12.40
2019-02-10T10:45:43.863Z,12.30
2019-02-10T10:48:10.183Z,12.10
2019-02-10T10:50:36.680Z,12.10
2019-02-10T10:53:03.058Z,12.00
2019-02-10T10:55:29.478Z,12.00
2019-02-10T10:57:55.887Z,11.90
2019-02-10T11:00:22.448Z,11.90
2019-02-10T11:02:48.924Z,12.00
2019-02-10T11:05:16.490Z,12.20
2019-02-10T11:07:42.849Z,12.10
2019-02-10T11:10:10.832Z,11.90
2019-02-10T11:12:37.403Z,11.70
2019-02-10T11:15:07.293Z,11.70
2019-02-10T11:17:33.583Z,11.70
2019-02-10T11:20:02.682Z,12.00
2019-02-10T11:22:29.060Z,12.40
2019-02-10T11:24:55.447Z,12.40
2019-02-10T11:27:21.854Z,12.40
2019-02-10T11:29:48.206Z,12.30
2019-02-10T11:32:14.572Z,12.20
2019-02-10T11:34:46.100Z,12.10
2019-02-10T11:37:09.449Z,12.20
2019-02-10T11:39:43.428Z,12.50
2019-02-10T11:42:04.127Z,12.80
2019-02-10T11:44:30.619Z,13.00
2019-02-10T11:46:56.895Z,12.90
2019-02-10T11:49:23.204Z,12.80
2019-02-10T11:51:49.703Z,12.60
2019-02-10T11:54:16.363Z,12.70
2019-02-10T11:56:42.664Z,12.80
2019-02-10T11:59:09.240Z,12.80
2019-02-10T12:01:35.545Z,12.70
2019-02-10T12:04:01.998Z,12.70
2019-02-10T12:06:28.410Z,12.60
2019-02-10T12:08:54.666Z,12.60
2019-02-10T12:11:20.952Z,12.50
2019-02-10T12:13:47.526Z,12.50
2019-02-10T12:16:14.097Z,12.50
2019-02-10T12:18:40.495Z,12.60
2019-02-10T12:21:06.763Z,12.60
2019-02-10T12:23:33.381Z,12.60
2019-02-10T12:25:59.772Z,12.60
2019-02-10T12:28:26.053Z,12.60
2019-02-10T12:30:52.531Z,12.50
2019-02-10T12:33:18.832Z,12.50
2019-02-10T12:35:45.232Z,12.40
2019-02-10T12:38:11.593Z,12.40
2019-02-10T12:40:38.020Z,12.30
2019-02-10T12:43:04.416Z,12.20
2019-02-10T12:45:30.848Z,12.20
2019-02-10T12:47:57.104Z,12.10
2019-02-10T12:50:23.509Z,12.00
2019-02-10T12:52:50.962Z,11.90
2019-02-10T12:55:17.488Z,11.80
2019-02-10T12:57:43.755Z,11.70
2019-02-10T13:00:13.439Z,11.60
2019-02-10T13:02:40.003Z,11.40
2019-02-10T13:05:06.463Z,11.20
2019-02-10T13:07:32.896Z,11.00
2019-02-10T13:09:59.454Z,10.80
2019-02-10T13:12:25.848Z,10.60
2019-02-10T13:14:52.525Z,10.30
2019-02-10T13:17:19.094Z,10.20
2019-02-10T13:19:46.459Z,10.00
2019-02-10T13:22:12.781Z,9.90
2019-02-10T13:24:39.279Z,9.70
2019-02-10T13:27:05.576Z,9.60
2019-02-10T13:29:31.970Z,9.40
2019-02-10T13:31:58.316Z,9.30
2019-02-10T13:34:25.714Z,9.20
2019-02-10T13:36:52.224Z,9.10
2019-02-10T13:39:18.689Z,9.00
2019-02-10T13:41:44.944Z,9.00
2019-02-10T13:44:11.400Z,9.00
2019-02-10T13:46:37.657Z,8.90
2019-02-10T13:49:04.425Z,8.90
2019-02-10T13:51:30.826Z,8.90
2019-02-10T13:53:57.388Z,8.90
2019-02-10T13:56:23.641Z,8.90
2019-02-10T13:58:49.956Z,8.80
2019-02-10T14:01:16.361Z,8.80
2019-02-10T14:03:42.844Z,8.70
2019-02-10T14:06:09.259Z,8.70
2019-02-10T14:08:35.526Z,8.70
2019-02-10T14:11:01.771Z,8.70
2019-02-10T14:13:28.348Z,8.60
2019-02-10T14:15:54.646Z,8.60
2019-02-10T14:18:21.154Z,8.60
2019-02-10T14:20:47.575Z,8.60
2019-02-10T14:23:14.077Z,8.50
2019-02-10T14:25:40.566Z,8.50
2019-02-10T14:28:06.943Z,8.40
2019-02-10T14:30:33.457Z,8.40
2019-02-10T14:32:59.946Z,8.40
2019-02-10T14:35:26.216Z,8.40
2019-02-10T14:37:52.659Z,8.30
2019-02-10T14:40:19.049Z,8.30
2019-02-10T14:42:45.282Z,8.30
2019-02-10T14:45:13.140Z,8.30
2019-02-10T14:47:39.437Z,8.20
2019-02-10T14:50:09.840Z,8.20
2019-02-10T14:52:36.407Z,8.20
2019-02-10T14:55:03.790Z,8.10
2019-02-10T14:57:30.296Z,8.10
2019-02-10T14:59:56.637Z,8.10
2019-02-10T15:02:22.978Z,8.00
2019-02-10T15:04:49.310Z,8.00
2019-02-10T15:07:16.544Z,8.00
2019-02-10T15:09:43.975Z,7.90
2019-02-10T15:12:10.226Z,7.90
2019-02-10T15:14:36.779Z,7.90
2019-02-10T15:17:03.346Z,7.90
2019-02-10T15:19:29.766Z,7.80
2019-02-10T15:21:56.223Z,7.80
2019-02-10T15:24:22.715Z,7.80
2019-02-10T15:26:49.118Z,7.70
2019-02-10T15:29:15.792Z,7.70
2019-02-10T15:31:42.080Z,7.70
2019-02-10T15:34:08.439Z,7.60
2019-02-10T15:36:34.805Z,7.60
2019-02-10T15:39:01.193Z,7.60
2019-02-10T15:41:27.588Z,7.50
2019-02-10T15:43:53.871Z,7.50
2019-02-10T15:46:20.255Z,7.50
2019-02-10T15:48:46.556Z,7.50
2019-02-10T15:51:12.823Z,7.40
2019-02-10T15:53:39.198Z,7.40
2019-02-10T15:56:05.917Z,7.40
2019-02-10T15:58:32.332Z,7.40
2019-02-10T16:01:02.173Z,7.30
2019-02-10T16:03:28.453Z,7.30
2019-02-10T16:05:54.739Z,7.30
2019-02-10T16:08:21.129Z,7.30
2019-02-10T16:10:47.400Z,7.30
2019-02-10T16:13:13.679Z,7.30
2019-02-10T16:15:39.963Z,7.20
2019-02-10T16:18:06.270Z,7.20
2019-02-10T16:20:32.530Z,7.20
2019-02-10T16:22:58.887Z,7.10
2019-02-10T16:25:25.202Z,7.10
2019-02-10T16:27:51.481Z,7.00
2019-02-10T16:30:18.049Z,7.00
2019-02-10T16:32:49.715Z,7.00
2019-02-10T16:35:12.775Z,7.00
2019-02-10T16:37:39.262Z,6.90
2019-02-10T16:40:16.952Z,6.90
2019-02-10T16:42:43.430Z,6.90
2019-02-10T16:45:10.885Z,6.80
2019-02-10T16:47:37.368Z,6.80
2019-02-10T16:50:06.847Z,6.80
2019-02-10T16:52:33.276Z,6.80
2019-02-10T16:54:59.511Z,6.80
2019-02-10T16:57:25.903Z,6.70
2019-02-10T16:59:52.314Z,6.80
2019-02-10T17:02:18.674Z,6.70
2019-02-10T17:04:45.083Z,6.70
2019-02-10T17:07:11.598Z,6.60
2019-02-10T17:09:37.924Z,6.60
2019-02-10T17:12:04.433Z,6.60
2019-02-10T17:14:30.933Z,6.60
2019-02-10T17:16:57.344Z,6.60
2019-02-10T17:19:23.667Z,6.50
2019-02-10T17:21:50.066Z,6.50
2019-02-10T17:24:16.366Z,6.50
2019-02-10T17:26:42.639Z,6.40
2019-02-10T17:29:09.046Z,6.40
2019-02-10T17:31:35.290Z,6.40
2019-02-10T17:34:01.653Z,6.40
2019-02-10T17:36:28.038Z,6.30
2019-02-10T17:38:54.436Z,6.30
2019-02-10T17:41:23.405Z,6.30
2019-02-10T17:43:49.774Z,6.30
2019-02-10T17:46:16.159Z,6.20
2019-02-10T17:48:42.405Z,5.90
2019-02-10T17:51:08.908Z,5.60
2019-02-10T17:53:35.170Z,5.50
2019-02-10T17:56:01.630Z,5.50
2019-02-10T17:58:29.254Z,5.40
2019-02-10T18:00:55.819Z,5.30
2019-02-10T18:03:22.049Z,5.30
2019-02-10T18:05:48.503Z,5.20
2019-02-10T18:08:14.988Z,5.20
2019-02-10T18:10:41.345Z,5.10
2019-02-10T18:13:07.647Z,5.10
2019-02-10T18:15:52.636Z,5.00
2019-02-10T18:18:39.130Z,5.00
2019-02-10T18:21:07.651Z,5.00
2019-02-10T18:23:44.752Z,4.90
2019-02-10T18:26:30.035Z,4.80
2019-02-10T18:29:01.263Z,4.90
2019-02-10T18:31:38.257Z,4.80
2019-02-10T18:34:06.693Z,4.80
2019-02-10T18:36:34.945Z,4.70
2019-02-10T18:39:14.908Z,4.70
2019-02-10T18:41:43.080Z,4.70
2019-02-10T18:44:14.416Z,4.60
2019-02-10T18:46:42.793Z,4.60
2019-02-10T18:49:27.596Z,4.60
2019-02-10T18:52:01.586Z,4.50
2019-02-10T18:54:32.523Z,4.50
2019-02-10T18:57:12.679Z,4.40
2019-02-10T18:59:43.662Z,4.40
2019-02-10T19:02:11.819Z,4.40
2019-02-10T19:04:40.104Z,4.40
2019-02-10T19:07:08.437Z,4.40
2019-02-10T19:09:39.288Z,4.40
2019-02-10T19:12:10.292Z,4.40
2019-02-10T19:14:47.807Z,4.50
2019-02-10T19:17:15.988Z,4.40
2019-02-10T19:19:46.886Z,4.40
2019-02-10T19:22:17.908Z,4.50
2019-02-10T19:25:02.718Z,4.40
2019-02-10T19:27:33.903Z,4.40
2019-02-10T19:30:10.922Z,4.40
2019-02-10T19:32:44.897Z,4.40
2019-02-10T19:35:29.802Z,4.40
2019-02-10T19:37:57.972Z,4.40
2019-02-10T19:40:35.014Z,4.40
2019-02-10T19:43:03.324Z,4.30
2019-02-10T19:45:31.520Z,4.30
2019-02-10T19:48:08.551Z,4.30
2019-02-10T19:50:36.763Z,4.30
2019-02-10T19:53:10.653Z,4.30
2019-02-10T19:55:38.941Z,4.30
2019-02-10T19:58:23.839Z,4.30
2019-02-10T20:00:52.118Z,4.30
2019-02-10T20:03:26.272Z,4.30
2019-02-10T20:05:57.231Z,4.20
2019-02-10T20:08:40.400Z,4.20
2019-02-10T20:11:08.710Z,4.20
2019-02-10T20:13:45.970Z,4.20
2019-02-10T20:16:17.147Z,4.20
2019-02-10T20:18:57.358Z,4.20
2019-02-10T20:21:25.573Z,4.20
2019-02-10T20:23:53.797Z,4.20
2019-02-10T20:26:22.252Z,4.20
2019-02-10T20:28:53.303Z,4.20
2019-02-10T20:31:38.162Z,4.20
2019-02-10T20:34:18.166Z,4.10
2019-02-10T20:36:46.531Z,4.10
2019-02-10T20:39:29.731Z,4.00
2019-02-10T20:42:12.480Z,4.00
2019-02-10T20:44:40.015Z,3.90
2019-02-10T20:47:11.399Z,3.90
2019-02-10T20:49:55.959Z,3.90
2019-02-10T20:52:27.107Z,3.80
2019-02-10T20:54:55.517Z,3.80
2019-02-10T20:57:32.700Z,3.70
2019-02-10T21:00:06.632Z,3.70
2019-02-10T21:02:34.908Z,3.60
2019-02-10T21:05:09.321Z,3.50
2019-02-10T21:07:40.508Z,3.50
2019-02-10T21:10:11.435Z,3.40
2019-02-10T21:12:45.644Z,3.40
2019-02-10T21:15:16.944Z,3.40
2019-02-10T21:17:45.306Z,3.30
2019-02-10T21:20:19.502Z,3.20
2019-02-10T21:22:50.849Z,3.20
2019-02-10T21:25:22.004Z,3.10
2019-02-10T21:28:06.603Z,3.10
2019-02-10T21:30:35.109Z,3.10
2019-02-10T21:33:03.384Z,3.00
2019-02-10T21:35:52.282Z,3.00
2019-02-10T21:38:22.999Z,3.00
2019-02-10T21:41:03.139Z,3.00
2019-02-10T21:43:43.455Z,3.00
2019-02-10T21:46:11.610Z,3.00
2019-02-10T21:48:37.909Z,2.90
2019-02-10T21:51:04.307Z,2.90
2019-02-10T21:53:30.693Z,2.90
2019-02-10T21:55:56.954Z,2.90
2019-02-10T21:58:23.235Z,2.90
2019-02-10T22:00:49.609Z,2.90
2019-02-10T22:03:15.968Z,2.90
2019-02-10T22:05:42.346Z,2.90
2019-02-10T22:08:08.678Z,2.90
2019-02-10T22:10:35.093Z,2.90
2019-02-10T22:13:01.445Z,2.90
2019-02-10T22:15:27.739Z,2.90
2019-02-10T22:17:54.213Z,2.90
2019-02-10T22:20:20.515Z,2.80
2019-02-10T22:22:46.881Z,2.80
2019-02-10T22:25:13.130Z,2.80
2019-02-10T22:27:39.768Z,2.80
2019-02-10T22:30:09.718Z,2.80
2019-02-10T22:32:36.216Z,2.80
2019-02-10T22:35:03.663Z,2.80
2019-02-10T22:37:35.500Z,2.80
2019-02-10T22:40:01.984Z,2.80
2019-02-10T22:42:28.258Z,2.80
2019-02-10T22:44:54.544Z,2.80
2019-02-10T22:47:20.946Z,2.80
2019-02-10T22:49:47.327Z,2.80
2019-02-10T22:52:13.581Z,2.70
2019-02-10T22:54:39.828Z,2.70
2019-02-10T22:57:06.109Z,2.70
2019-02-10T22:59:32.360Z,2.70
2019-02-10T23:01:59.039Z,2.70
2019-02-10T23:04:25.333Z,2.70
2019-02-10T23:06:51.677Z,2.70
2019-02-10T23:09:20.068Z,2.70
2019-02-10T23:11:46.326Z,2.60
2019-02-10T23:14:12.637Z,2.60
2019-02-10T23:16:38.884Z,2.60
2019-02-10T23:19:05.269Z,2.60
2019-02-10T23:21:31.589Z,2.60
2019-02-10T23:23:58.117Z,2.50
2019-02-10T23:26:24.568Z,2.50
2019-02-10T23:28:50.982Z,2.50
2019-02-10T23:31:17.221Z,2.50
2019-02-10T23:33:43.496Z,2.50
2019-02-10T23:36:09.754Z,2.50
2019-02-10T23:38:36.143Z,2.50
2019-02-10T23:41:02.502Z,2.50
2019-02-10T23:43:28.742Z,2.50
2019-02-10T23:45:55.034Z,2.60
2019-02-10T23:48:21.392Z,2.60
2019-02-10T23:50:47.663Z,2.50
2019-02-10T23:53:14.076Z,2.60
2019-02-10T23:55:40.312Z,2.60
2019-02-10T23:58:06.691Z,2.60
